Time;durP1;ratioP1;P1;durP2;ratioP2;P2;SDS_P1;SDS_P2;PMS_P1;PMS_P2;Temp;Humidity;BMP_temperature;BMP_pressure;BME280_temperature;BME280_humidity;BME280_pressure;Samples;Min_cycle;Max_cycle;Signal;HPM_P1;HPM_P2
2021/10/08 00:01:43;;;;;;;3.25;2.05;;;;;;;6.00;100.00;100134.75;5054631;28;20127;-81
2021/10/08 00:04:10;;;;;;;2.03;1.83;;;;;;;5.97;100.00;100144.97;5056204;28;20041;-81
2021/10/08 00:06:37;;;;;;;3.95;1.60;;;;;;;5.94;100.00;100164.94;5063546;28;20492;-81
2021/10/08 00:09:08;;;;;;;7.57;1.98;;;;;;;5.89;100.00;100140.19;5059404;28;20056;-81
2021/10/08 00:11:35;;;;;;;3.85;2.42;;;;;;;6.08;100.00;100158.41;5054677;28;20053;-81
2021/10/08 00:14:01;;;;;;;4.57;1.88;;;;;;;6.01;100.00;100149.97;5065355;28;20051;-81
2021/10/08 00:16:28;;;;;;;6.05;2.20;;;;;;;5.81;100.00;100143.56;5057863;28;20063;-81
2021/10/08 00:18:55;;;;;;;7.47;2.00;;;;;;;5.77;100.00;100135.84;5053844;28;20055;-81
2021/10/08 00:21:22;;;;;;;3.22;1.90;;;;;;;5.68;100.00;100140.19;5060032;28;20048;-80
2021/10/08 00:23:50;;;;;;;2.50;2.13;;;;;;;5.80;100.00;100132.88;5055114;28;20068;-81
2021/10/08 00:26:18;;;;;;;3.60;1.95;;;;;;;5.85;100.00;100134.19;5057661;28;20040;-81
2021/10/08 00:28:45;;;;;;;3.65;2.05;;;;;;;5.90;100.00;100150.00;5069926;28;20052;-80
2021/10/08 00:31:12;;;;;;;2.15;1.95;;;;;;;5.72;100.00;100135.38;5055888;28;20052;-80
2021/10/08 00:33:39;;;;;;;10.80;2.30;;;;;;;5.86;100.00;100140.47;5069231;28;20051;-81
2021/10/08 00:36:06;;;;;;;7.68;2.15;;;;;;;5.72;100.00;100125.44;5056655;28;20489;-80
2021/10/08 00:38:32;;;;;;;2.45;2.20;;;;;;;5.75;100.00;100141.38;5053253;28;20041;-81
2021/10/08 00:40:59;;;;;;;3.75;2.17;;;;;;;5.70;100.00;100140.88;5068197;28;20055;-80
2021/10/08 00:43:28;;;;;;;4.05;2.30;;;;;;;5.62;100.00;100128.06;5073231;28;20056;-80
2021/10/08 00:45:54;;;;;;;3.28;2.10;;;;;;;5.64;100.00;100125.22;5065764;28;20075;-80
2021/10/08 00:48:21;;;;;;;2.60;2.30;;;;;;;5.58;100.00;100139.22;5071217;28;20519;-81
2021/10/08 00:50:51;;;;;;;3.35;2.42;;;;;;;5.48;100.00;100113.03;5060816;28;20390;-80
2021/10/08 00:53:19;;;;;;;3.38;2.67;;;;;;;5.49;100.00;100128.25;5053524;28;20055;-80
2021/10/08 00:55:47;;;;;;;4.85;2.10;;;;;;;5.35;100.00;100119.59;5056109;28;20060;-80
2021/10/08 00:58:16;;;;;;;4.78;2.38;;;;;;;5.56;100.00;100136.66;5054270;28;20052;-81
2021/10/08 01:00:47;;;;;;;2.80;2.10;;;;;;;5.56;100.00;100127.72;5060670;28;20057;-81
2021/10/08 01:03:14;;;;;;;4.20;2.05;;;;;;;5.58;100.00;100133.84;5076770;28;20488;-81
2021/10/08 01:05:42;;;;;;;3.05;2.50;;;;;;;5.25;100.00;100117.63;5067142;28;20052;-80
2021/10/08 01:08:10;;;;;;;3.47;2.08;;;;;;;5.41;100.00;100137.97;5065629;28;20048;-81
2021/10/08 01:10:39;;;;;;;2.00;1.80;;;;;;;5.35;100.00;100130.38;5075912;28;20201;-80
2021/10/08 01:13:08;;;;;;;3.40;2.40;;;;;;;5.30;100.00;100137.00;5077230;28;20052;-80
2021/10/08 01:15:35;;;;;;;3.25;2.20;;;;;;;5.23;100.00;100107.97;5068320;28;20049;-81
2021/10/08 01:18:04;;;;;;;3.40;2.20;;;;;;;5.38;100.00;100130.97;5056980;28;20049;-81
2021/10/08 01:20:33;;;;;;;2.20;1.80;;;;;;;5.42;100.00;100129.72;5058835;28;20049;-80
2021/10/08 01:23:00;;;;;;;5.00;3.20;;;;;;;5.20;100.00;100125.25;5067859;28;20646;-80
2021/10/08 01:25:28;;;;;;;3.03;2.22;;;;;;;5.20;100.00;100108.25;5071539;28;20045;-80
2021/10/08 01:27:56;;;;;;;3.85;2.20;;;;;;;5.24;100.00;100109.69;5066614;28;20057;-80
2021/10/08 01:30:24;;;;;;;2.08;1.83;;;;;;;5.22;100.00;100092.78;5056647;28;20107;-80
2021/10/08 01:32:52;;;;;;;2.88;2.38;;;;;;;5.12;100.00;100093.56;5056609;28;20075;-82
2021/10/08 01:35:20;;;;;;;2.63;2.20;;;;;;;5.13;100.00;100091.69;5057937;28;20049;-81
2021/10/08 01:37:50;;;;;;;6.20;2.33;;;;;;;5.14;100.00;100118.53;5055547;28;20053;-80
2021/10/08 01:40:17;;;;;;;3.97;2.58;;;;;;;5.21;100.00;100123.41;5057220;28;20057;-81
2021/10/08 01:42:44;;;;;;;2.83;2.20;;;;;;;5.02;100.00;100089.91;5071125;28;20391;-81
2021/10/08 01:45:13;;;;;;;8.90;2.05;;;;;;;4.91;100.00;100104.25;5063532;28;20472;-80
2021/10/08 01:47:40;;;;;;;3.10;1.75;;;;;;;5.00;100.00;100108.03;5071137;28;20056;-81
2021/10/08 01:50:08;;;;;;;4.70;2.25;;;;;;;5.02;100.00;100107.91;5076457;28;20063;-81
2021/10/08 01:52:36;;;;;;;4.05;1.95;;;;;;;5.00;100.00;100105.34;5066301;28;20385;-80
2021/10/08 01:55:05;;;;;;;3.63;2.20;;;;;;;5.01;100.00;100106.19;5075745;28;20131;-81
2021/10/08 01:57:32;;;;;;;5.10;2.50;;;;;;;4.94;100.00;100109.41;5075067;28;20052;-81
2021/10/08 01:59:58;;;;;;;4.63;2.17;;;;;;;4.98;100.00;100115.38;5056308;28;20477;-81
2021/10/08 02:02:25;;;;;;;3.38;2.25;;;;;;;5.06;100.00;100114.75;5071130;28;20059;-81
2021/10/08 02:04:52;;;;;;;5.72;2.33;;;;;;;4.78;100.00;100109.78;5056479;28;20045;-80
2021/10/08 02:07:19;;;;;;;2.42;2.13;;;;;;;4.76;100.00;100116.28;5061675;28;20045;-81
2021/10/08 02:09:46;;;;;;;2.10;1.90;;;;;;;4.91;100.00;100108.81;5063208;28;20067;-81
2021/10/08 02:12:15;;;;;;;2.15;1.95;;;;;;;4.94;100.00;100124.72;5067016;28;20051;-81
2021/10/08 02:14:41;;;;;;;5.80;2.30;;;;;;;4.79;100.00;100100.72;5055382;28;20052;-81
2021/10/08 02:17:08;;;;;;;5.10;1.90;;;;;;;4.87;100.00;100105.47;5055720;28;20052;-80
2021/10/08 02:19:35;;;;;;;2.47;1.75;;;;;;;4.81;100.00;100089.81;5056668;28;20045;-80
2021/10/08 02:22:03;;;;;;;2.72;2.25;;;;;;;4.82;100.00;100096.06;5065537;28;20095;-81
2021/10/08 02:24:30;;;;;;;3.13;1.98;;;;;;;4.88;100.00;100114.44;5055018;28;20049;-81
2021/10/08 02:26:57;;;;;;;2.50;2.22;;;;;;;4.73;100.00;100111.16;5056239;28;20045;-80
2021/10/08 02:29:25;;;;;;;4.88;2.22;;;;;;;4.79;100.00;100105.25;5055435;28;20056;-81
2021/10/08 02:31:52;;;;;;;2.92;2.60;;;;;;;4.88;100.00;100128.75;5062866;28;20055;-80
2021/10/08 02:34:19;;;;;;;7.75;2.28;;;;;;;4.74;100.00;100123.63;5057414;28;20075;-81
2021/10/08 02:36:46;;;;;;;4.55;2.45;;;;;;;4.48;100.00;100102.34;5056054;28;20052;-81
2021/10/08 02:39:13;;;;;;;3.97;2.35;;;;;;;4.43;100.00;100099.16;5069565;28;20052;-81
2021/10/08 02:41:40;;;;;;;4.35;2.40;;;;;;;4.65;100.00;100127.91;5070304;28;20071;-80
2021/10/08 02:44:07;;;;;;;2.80;2.10;;;;;;;4.61;100.00;100119.22;5065759;28;20049;-81
2021/10/08 02:46:35;;;;;;;4.10;2.30;;;;;;;4.51;100.00;100115.56;5058539;28;20043;-80
2021/10/08 02:49:02;;;;;;;4.85;2.40;;;;;;;4.51;100.00;100096.72;5073668;28;20040;-81
2021/10/08 02:51:33;;;;;;;2.97;2.08;;;;;;;4.55;100.00;100117.03;5063461;28;20060;-80
2021/10/08 02:54:00;;;;;;;10.15;2.97;;;;;;;4.63;100.00;100115.56;5054919;28;20044;-80
2021/10/08 02:56:27;;;;;;;5.43;2.63;;;;;;;4.45;100.00;100091.81;5056175;28;20443;-81
2021/10/08 02:58:54;;;;;;;4.50;2.28;;;;;;;4.54;100.00;100107.22;5059188;28;20056;-81
2021/10/08 03:01:21;;;;;;;3.58;2.30;;;;;;;4.53;100.00;100101.97;5056345;28;20045;-81
2021/10/08 03:03:49;;;;;;;4.53;3.00;;;;;;;4.50;100.00;100099.53;5055055;28;20059;-81
2021/10/08 03:06:16;;;;;;;3.38;2.72;;;;;;;4.56;100.00;100099.03;5064280;28;20052;-81
2021/10/08 03:08:45;;;;;;;3.05;2.25;;;;;;;4.64;100.00;100122.66;5065247;28;20045;-81
2021/10/08 03:11:12;;;;;;;3.22;2.63;;;;;;;4.63;100.00;100120.94;5068850;28;20044;-81
2021/10/08 03:13:39;;;;;;;9.98;4.38;;;;;;;4.40;100.00;100112.88;5056733;28;20128;-81
2021/10/08 03:16:06;;;;;;;2.47;2.20;;;;;;;4.38;100.00;100115.69;5059252;28;20063;-81
2021/10/08 03:18:33;;;;;;;4.93;2.78;;;;;;;4.50;100.00;100123.75;5067448;28;20492;-81
2021/10/08 03:21:01;;;;;;;4.05;2.75;;;;;;;4.55;100.00;100122.41;5068004;28;20048;-81
2021/10/08 03:23:28;;;;;;;4.20;2.75;;;;;;;4.43;100.00;100109.94;5062029;28;20073;-80
2021/10/08 03:25:55;;;;;;;9.98;3.00;;;;;;;4.38;100.00;100115.69;5060435;28;20044;-81
2021/10/08 03:28:22;;;;;;;5.75;2.85;;;;;;;4.46;100.00;100139.31;5064734;28;20052;-81
2021/10/08 03:30:49;;;;;;;3.15;2.72;;;;;;;4.46;100.00;100142.00;5054263;28;20056;-81
2021/10/08 03:33:16;;;;;;;3.45;2.60;;;;;;;4.43;100.00;100132.31;5054514;28;20402;-81
2021/10/08 03:35:43;;;;;;;4.78;3.00;;;;;;;4.48;100.00;100131.13;5054177;28;20041;-81
2021/10/08 03:38:14;;;;;;;6.60;3.05;;;;;;;4.30;100.00;100117.28;5063976;28;20045;-81
2021/10/08 03:40:42;;;;;;;3.47;2.35;;;;;;;4.34;100.00;100118.75;5073743;28;20143;-81
2021/10/08 03:43:11;;;;;;;4.15;2.85;;;;;;;4.23;100.00;100133.91;5073803;28;20048;-81
2021/10/08 03:45:45;;;;;;;3.33;2.50;;;;;;;4.33;100.00;100136.72;5072084;28;20119;-81
2021/10/08 03:48:22;;;;;;;3.58;2.50;;;;;;;4.06;100.00;100111.03;5056074;28;20040;-81
2021/10/08 03:50:54;;;;;;;5.78;2.53;;;;;;;4.11;100.00;100124.13;5060864;28;20044;-81
2021/10/08 03:53:22;;;;;;;8.73;3.28;;;;;;;4.19;100.00;100124.34;5074251;28;20518;-81
2021/10/08 03:55:49;;;;;;;5.05;3.25;;;;;;;4.19;100.00;100112.75;5068818;28;20484;-81
2021/10/08 03:58:16;;;;;;;4.35;3.03;;;;;;;4.30;100.00;100142.34;5060523;28;20053;-81
2021/10/08 04:00:43;;;;;;;4.47;2.72;;;;;;;4.21;100.00;100130.47;5058058;28;20056;-80
2021/10/08 04:03:10;;;;;;;4.15;3.20;;;;;;;4.18;100.00;100146.84;5073672;28;20419;-80
2021/10/08 04:05:37;;;;;;;4.55;3.15;;;;;;;4.22;100.00;100142.09;5062111;28;20488;-80
2021/10/08 04:08:07;;;;;;;5.68;2.92;;;;;;;4.17;100.00;100122.75;5060474;28;20037;-80
2021/10/08 04:10:37;;;;;;;4.95;2.90;;;;;;;4.15;100.00;100130.94;5064179;28;20044;-80
2021/10/08 04:13:05;;;;;;;4.45;3.35;;;;;;;4.10;100.00;100118.84;5054462;28;20408;-80
2021/10/08 04:15:32;;;;;;;4.45;2.60;;;;;;;4.15;100.00;100159.72;5055463;28;20052;-80
2021/10/08 04:17:59;;;;;;;6.15;2.78;;;;;;;3.95;100.00;100137.03;5053541;28;20120;-79
2021/10/08 04:20:28;;;;;;;6.25;2.75;;;;;;;3.96;100.00;100139.63;5053440;28;20135;-79
2021/10/08 04:22:55;;;;;;;7.85;2.85;;;;;;;3.95;100.00;100132.50;5072006;28;20131;-82
2021/10/08 04:25:22;;;;;;;3.40;2.45;;;;;;;3.94;100.00;100132.63;5065741;28;20489;-81
2021/10/08 04:27:50;;;;;;;4.63;2.40;;;;;;;3.91;100.00;100133.72;5065517;28;20040;-81
2021/10/08 04:30:17;;;;;;;4.28;2.70;;;;;;;3.99;100.00;100149.25;5073402;28;20044;-81
2021/10/08 04:32:44;;;;;;;4.90;3.20;;;;;;;3.88;100.00;100133.94;5053811;28;20049;-80
2021/10/08 04:35:11;;;;;;;3.92;3.30;;;;;;;3.97;100.00;100138.63;5052689;28;20053;-80
2021/10/08 04:37:38;;;;;;;4.10;3.03;;;;;;;4.17;100.00;100155.94;5065492;28;20041;-80
2021/10/08 04:40:06;;;;;;;4.82;3.40;;;;;;;4.11;100.00;100140.25;5055527;28;20660;-80
2021/10/08 04:42:33;;;;;;;4.45;2.58;;;;;;;3.98;100.00;100128.72;5059540;28;20052;-80
2021/10/08 04:45:04;;;;;;;4.47;2.78;;;;;;;3.93;100.00;100128.22;5052833;28;20106;-80
2021/10/08 04:47:32;;;;;;;4.90;2.92;;;;;;;4.10;100.00;100143.91;5059928;28;20075;-80
2021/10/08 04:49:59;;;;;;;8.75;3.22;;;;;;;4.01;100.00;100110.50;5053910;28;20075;-80
2021/10/08 04:52:26;;;;;;;5.32;3.42;;;;;;;3.97;100.00;100113.56;5063527;28;20060;-80
2021/10/08 04:54:53;;;;;;;8.23;3.65;;;;;;;3.95;100.00;100121.75;5053052;28;20049;-83
2021/10/08 04:57:20;;;;;;;6.47;4.28;;;;;;;3.94;100.00;100141.53;5058161;28;20414;-80
2021/10/08 04:59:46;;;;;;;5.75;3.72;;;;;;;3.90;100.00;100126.63;5053255;28;20098;-80
2021/10/08 05:02:15;;;;;;;5.82;3.85;;;;;;;3.94;100.00;100124.56;5057083;28;20045;-80
2021/10/08 05:04:43;;;;;;;6.60;3.95;;;;;;;4.08;100.00;100140.50;5053124;28;20136;-81
2021/10/08 05:07:10;;;;;;;6.03;4.22;;;;;;;4.07;100.00;100128.00;5052609;28;20045;-80
2021/10/08 05:09:36;;;;;;;6.45;4.10;;;;;;;3.94;100.00;100125.41;5052479;28;20049;-81
2021/10/08 05:12:04;;;;;;;7.28;4.10;;;;;;;3.86;100.00;100127.84;5052165;28;20095;-81
2021/10/08 05:14:30;;;;;;;6.97;4.20;;;;;;;3.82;100.00;100121.81;5051404;28;20041;-81
2021/10/08 05:17:00;;;;;;;5.85;4.07;;;;;;;3.69;100.00;100126.47;5067234;28;20049;-81
2021/10/08 05:19:29;;;;;;;5.90;4.07;;;;;;;3.77;100.00;100129.41;5061288;28;20401;-81
2021/10/08 05:21:56;;;;;;;5.63;3.67;;;;;;;3.96;100.00;100134.22;5059956;28;20047;-80
2021/10/08 05:24:23;;;;;;;6.32;4.53;;;;;;;3.99;100.00;100135.81;5060399;28;20059;-81
2021/10/08 05:26:51;;;;;;;9.23;4.47;;;;;;;3.82;100.00;100119.13;5060204;28;20403;-81
2021/10/08 05:29:18;;;;;;;10.60;4.85;;;;;;;3.82;100.00;100124.50;5055757;28;20048;-81
2021/10/08 05:31:45;;;;;;;5.38;4.05;;;;;;;3.84;100.00;100125.28;5052581;28;20096;-80
2021/10/08 05:34:13;;;;;;;10.15;4.68;;;;;;;4.00;100.00;100146.44;5068784;28;20098;-81
2021/10/08 05:36:42;;;;;;;8.20;4.20;;;;;;;3.90;100.00;100122.09;5051374;28;20053;-81
2021/10/08 05:39:09;;;;;;;5.32;4.13;;;;;;;3.94;100.00;100144.22;5057604;28;20056;-81
2021/10/08 05:41:36;;;;;;;8.85;4.28;;;;;;;3.79;100.00;100124.75;5052396;28;20450;-81
2021/10/08 05:44:02;;;;;;;5.45;3.92;;;;;;;3.83;100.00;100131.63;5067512;28;20040;-81
2021/10/08 05:46:29;;;;;;;6.10;3.97;;;;;;;3.76;100.00;100135.75;5053996;28;20049;-80
2021/10/08 05:48:57;;;;;;;8.98;4.32;;;;;;;3.79;100.00;100124.75;5057251;28;20071;-80
2021/10/08 05:51:24;;;;;;;8.57;4.70;;;;;;;3.94;100.00;100170.28;5055169;28;20106;-80
2021/10/08 05:53:52;;;;;;;16.42;5.47;;;;;;;3.83;100.00;100141.53;5066853;28;20488;-81
2021/10/08 05:56:20;;;;;;;7.70;4.90;;;;;;;3.94;100.00;100164.91;5057811;28;20086;-81
2021/10/08 05:58:46;;;;;;;8.38;5.43;;;;;;;4.00;100.00;100154.53;5068380;28;20056;-81
2021/10/08 06:01:13;;;;;;;9.45;4.40;;;;;;;4.00;100.00;100142.91;5069231;28;20044;-81
2021/10/08 06:03:40;;;;;;;7.30;4.85;;;;;;;4.08;100.00;100153.97;5067129;28;20053;-81
2021/10/08 06:06:07;;;;;;;7.07;5.07;;;;;;;4.04;100.00;100136.31;5055653;28;20053;-81
2021/10/08 06:08:34;;;;;;;10.45;5.72;;;;;;;4.19;100.00;100134.28;5070707;28;20546;-81
2021/10/08 06:11:05;;;;;;;10.57;5.65;;;;;;;4.26;100.00;100140.91;5065894;28;20049;-82
2021/10/08 06:13:34;;;;;;;9.10;5.18;;;;;;;4.18;100.00;100146.84;5057764;28;20057;-79
2021/10/08 06:16:01;;;;;;;11.52;5.15;;;;;;;4.14;100.00;100142.72;5055659;28;20053;-80
2021/10/08 06:18:28;;;;;;;10.90;6.60;;;;;;;4.23;100.00;100139.28;5062617;28;20076;-79
2021/10/08 06:21:08;;;;;;;8.10;6.03;;;;;;;4.36;100.00;100155.31;5055357;28;20513;-79
2021/10/08 06:23:37;;;;;;;10.35;6.55;;;;;;;4.29;100.00;100131.69;5071038;28;20044;-80
2021/10/08 06:26:06;;;;;;;13.38;7.40;;;;;;;4.58;100.00;100159.03;5065009;28;20102;-80
2021/10/08 06:28:33;;;;;;;11.07;7.10;;;;;;;4.50;100.00;100150.69;5055621;28;20055;-80
2021/10/08 06:31:00;;;;;;;12.35;6.63;;;;;;;4.54;100.00;100144.94;5055105;28;20048;-80
2021/10/08 06:33:26;;;;;;;9.98;6.65;;;;;;;4.58;100.00;100132.94;5056681;28;20170;-80
2021/10/08 06:35:53;;;;;;;11.63;7.43;;;;;;;4.77;100.00;100161.97;5074997;28;20053;-80
2021/10/08 06:38:30;;;;;;;17.05;7.32;;;;;;;4.87;100.00;100158.53;5073625;28;20052;-79
2021/10/08 06:41:00;;;;;;;11.90;7.30;;;;;;;5.01;100.00;100149.31;5066193;28;20045;-80
2021/10/08 06:43:28;;;;;;;13.15;7.22;;;;;;;5.12;100.00;100141.22;5072058;28;20040;-79
2021/10/08 06:45:55;;;;;;;13.65;8.32;;;;;;;5.29;100.00;100151.47;5067469;28;20044;-80
2021/10/08 06:48:22;;;;;;;14.88;7.70;;;;;;;5.21;100.00;100137.78;5075038;28;20049;-80
2021/10/08 06:50:48;;;;;;;13.23;7.45;;;;;;;5.48;100.00;100171.53;5072789;28;20060;-80
2021/10/08 06:53:15;;;;;;;13.10;8.10;;;;;;;5.43;100.00;100146.75;5066627;28;20048;-81
2021/10/08 06:55:43;;;;;;;12.52;7.85;;;;;;;5.47;100.00;100134.75;5055486;28;20094;-81
2021/10/08 06:58:09;;;;;;;11.75;7.15;;;;;;;5.60;100.00;100137.25;5071759;28;20041;-81
2021/10/08 07:00:38;;;;;;;12.40;7.05;;;;;;;5.75;100.00;100154.00;5068170;28;20159;-80
2021/10/08 07:03:07;;;;;;;14.20;8.82;;;;;;;5.81;100.00;100150.75;5054942;28;20114;-81
2021/10/08 07:05:34;;;;;;;15.20;9.65;;;;;;;5.99;100.00;100153.78;5057609;28;20052;-81
2021/10/08 07:08:01;;;;;;;18.05;9.40;;;;;;;6.00;100.00;100142.84;5067602;28;20051;-80
2021/10/08 07:10:43;;;;;;;17.17;10.13;;;;;;;6.19;100.00;100146.69;5054919;28;20091;-80
2021/10/08 07:13:10;;;;;;;17.73;9.27;;;;;;;6.24;100.00;100154.38;5064959;28;20048;-80
2021/10/08 07:15:43;;;;;;;22.30;9.93;;;;;;;6.21;100.00;100131.19;5068906;28;20053;-80
2021/10/08 07:18:14;;;;;;;17.83;10.70;;;;;;;6.48;100.00;100160.34;5054600;28;20073;-80
2021/10/08 07:20:46;;;;;;;18.35;10.98;;;;;;;6.53;100.00;100141.91;5053505;28;20085;-80
2021/10/08 07:23:13;;;;;;;17.80;10.43;;;;;;;6.70;100.00;100143.09;5052559;28;20045;-80
2021/10/08 07:25:40;;;;;;;20.23;10.57;;;;;;;6.70;100.00;100153.06;5052662;28;20049;-80
2021/10/08 07:28:07;;;;;;;17.02;8.93;;;;;;;6.80;100.00;100142.28;5052738;28;20094;-80
2021/10/08 07:30:34;;;;;;;20.40;10.95;;;;;;;6.82;100.00;100141.16;5053116;28;20074;-80
2021/10/08 07:33:02;;;;;;;18.13;10.43;;;;;;;6.91;100.00;100136.78;5052575;28;20049;-80
2021/10/08 07:35:29;;;;;;;17.73;9.85;;;;;;;7.15;100.00;100149.94;5053191;28;20061;-80
2021/10/08 07:37:55;;;;;;;13.65;9.35;;;;;;;7.11;100.00;100150.34;5052232;28;20485;-80
2021/10/08 07:40:22;;;;;;;14.75;9.55;;;;;;;7.30;100.00;100154.94;5053355;28;20052;-80
2021/10/08 07:42:49;;;;;;;13.68;8.68;;;;;;;7.31;100.00;100140.44;5053936;28;20055;-80
2021/10/08 07:45:16;;;;;;;15.25;9.63;;;;;;;7.22;100.00;100134.84;5053652;28;20060;-80
2021/10/08 07:47:43;;;;;;;16.15;10.10;;;;;;;7.41;100.00;100135.88;5053749;28;20140;-80
2021/10/08 07:50:13;;;;;;;16.27;8.63;;;;;;;7.58;100.00;100131.63;5053835;28;20063;-80
2021/10/08 07:52:40;;;;;;;12.68;8.65;;;;;;;7.67;100.00;100136.19;5054000;28;20053;-80
2021/10/08 07:55:09;;;;;;;16.45;9.48;;;;;;;7.72;100.00;100135.75;5053371;28;20139;-80
2021/10/08 07:57:36;;;;;;;19.33;10.07;;;;;;;7.83;100.00;100132.91;5053778;28;20055;-80
2021/10/08 08:00:04;;;;;;;21.23;10.52;;;;;;;7.91;100.00;100140.31;5053473;28;20045;-80
2021/10/08 08:02:30;;;;;;;17.48;9.63;;;;;;;8.02;100.00;100133.88;5053538;28;20056;-80
2021/10/08 08:04:58;;;;;;;17.98;9.98;;;;;;;8.21;100.00;100138.41;5053529;28;20057;-80
2021/10/08 08:07:26;;;;;;;16.30;10.00;;;;;;;8.18;100.00;100128.72;5053715;28;20060;-80
2021/10/08 08:09:53;;;;;;;17.08;10.13;;;;;;;8.32;100.00;100140.94;5053939;28;20045;-80
2021/10/08 08:12:20;;;;;;;14.80;9.48;;;;;;;8.38;100.00;100132.22;5053564;28;20106;-80
2021/10/08 08:14:46;;;;;;;17.73;10.60;;;;;;;8.55;100.00;100137.91;5053424;28;20047;-80
2021/10/08 08:17:14;;;;;;;15.95;10.63;;;;;;;8.69;100.00;100142.88;5053234;28;20056;-80
2021/10/08 08:19:42;;;;;;;18.80;10.20;;;;;;;8.76;100.00;100141.28;5053328;28;20052;-79
2021/10/08 08:22:09;;;;;;;19.10;10.38;;;;;;;8.98;100.00;100136.44;5053270;28;20072;-79
2021/10/08 08:24:37;;;;;;;14.00;9.95;;;;;;;9.07;100.00;100131.97;5053151;28;20048;-80
2021/10/08 08:27:04;;;;;;;13.32;8.80;;;;;;;9.17;100.00;100124.66;5053378;28;20056;-80
2021/10/08 08:29:49;;;;;;;20.70;10.32;;;;;;;9.45;100.00;100146.31;5131043;27;20371;-81
2021/10/08 08:32:16;;;;;;;16.88;10.63;;;;;;;9.64;100.00;100139.88;5131489;28;20046;-80
2021/10/08 08:34:43;;;;;;;17.13;9.38;;;;;;;9.90;100.00;100131.78;5131379;27;20058;-80
2021/10/08 08:37:10;;;;;;;15.52;9.45;;;;;;;9.92;100.00;100121.59;5131195;27;20070;-80
2021/10/08 08:39:39;;;;;;;13.43;8.93;;;;;;;10.21;100.00;100131.38;5131380;28;20050;-80
2021/10/08 08:42:05;;;;;;;13.25;8.55;;;;;;;10.41;100.00;100127.44;5131141;28;20059;-80
2021/10/08 08:44:34;;;;;;;11.68;7.35;;;;;;;10.58;100.00;100132.97;5131588;28;20043;-80
2021/10/08 08:47:02;;;;;;;14.55;8.05;;;;;;;10.73;100.00;100120.47;5122123;27;20067;-80
2021/10/08 08:49:30;;;;;;;10.93;7.15;;;;;;;10.91;97.79;100116.81;5111210;28;20050;-80
2021/10/08 08:51:56;;;;;;;11.75;7.60;;;;;;;11.23;99.37;100129.69;5120335;28;20544;-80
2021/10/08 08:54:23;;;;;;;12.70;7.57;;;;;;;11.30;97.15;100127.16;5131261;27;20194;-80
2021/10/08 08:56:50;;;;;;;7.90;6.00;;;;;;;11.34;96.53;100131.25;5131019;28;20055;-80
2021/10/08 08:59:17;;;;;;;12.40;7.30;;;;;;;11.40;95.58;100132.47;5131640;28;20072;-80
2021/10/08 09:02:00;;;;;;;9.07;6.20;;;;;;;11.54;95.21;100123.63;5130965;28;20499;-80
2021/10/08 09:04:29;;;;;;;10.90;7.03;;;;;;;11.48;95.49;100099.78;5130505;28;20606;-81
2021/10/08 09:06:56;;;;;;;12.33;6.73;;;;;;;11.52;95.08;100101.19;5131086;28;20044;-81
2021/10/08 09:09:25;;;;;;;11.25;7.10;;;;;;;11.67;95.34;100112.25;5130938;27;20301;-81
2021/10/08 09:11:56;;;;;;;12.80;6.90;;;;;;;11.79;94.70;100123.69;5131216;28;20047;-80
2021/10/08 09:14:25;;;;;;;8.88;6.20;;;;;;;11.73;95.27;100111.56;5130375;28;20457;-81
2021/10/08 09:17:09;;;;;;;11.15;6.70;;;;;;;11.83;96.50;100105.94;5130864;28;20456;-81
2021/10/08 09:19:56;;;;;;;21.17;7.28;;;;;;;11.99;94.47;100129.66;5130561;28;20039;-81
2021/10/08 09:22:25;;;;;;;11.55;6.90;;;;;;;11.98;95.18;100119.78;5131038;28;20448;-81
2021/10/08 09:24:53;;;;;;;16.40;6.45;;;;;;;11.92;95.28;100132.16;5130410;28;20487;-81
2021/10/08 09:27:23;;;;;;;13.98;6.20;;;;;;;12.06;94.95;100138.00;5130600;27;20059;-81
2021/10/08 09:29:57;;;;;;;8.38;5.78;;;;;;;11.78;95.92;100111.06;5129573;27;20035;-81
2021/10/08 09:32:25;;;;;;;8.55;5.78;;;;;;;11.84;96.38;100115.84;5130574;27;20395;-81
2021/10/08 09:35:06;;;;;;;8.10;5.72;;;;;;;11.94;94.78;100121.13;5119731;27;20054;-81
2021/10/08 09:37:33;;;;;;;10.40;6.63;;;;;;;11.83;94.49;100119.56;5129867;27;20052;-81
2021/10/08 09:40:00;;;;;;;13.40;7.07;;;;;;;11.71;95.65;100126.38;5123086;28;20122;-81
2021/10/08 09:42:33;;;;;;;11.60;6.05;;;;;;;11.79;94.69;100113.63;5116565;28;20398;-81
2021/10/08 09:45:00;;;;;;;9.77;5.63;;;;;;;11.58;94.90;100102.38;5113066;28;20065;-81
2021/10/08 09:47:28;;;;;;;14.05;6.47;;;;;;;11.77;94.85;100114.81;5116442;28;20664;-81
2021/10/08 09:50:11;;;;;;;8.20;5.40;;;;;;;11.82;95.09;100112.44;5116215;28;20047;-81
2021/10/08 09:52:38;;;;;;;8.88;6.25;;;;;;;11.82;95.06;100105.09;5117281;28;20052;-81
2021/10/08 09:55:07;;;;;;;9.32;5.80;;;;;;;11.92;94.40;100114.97;5116009;28;20522;-81
2021/10/08 09:57:56;;;;;;;10.43;5.95;;;;;;;12.10;92.93;100121.13;5116089;28;20044;-81
2021/10/08 10:00:36;;;;;;;13.18;6.68;;;;;;;12.09;93.32;100124.03;5116357;28;20063;-82
2021/10/08 10:03:05;;;;;;;10.55;5.35;;;;;;;12.01;93.21;100103.94;5116089;28;20419;-84
2021/10/08 10:05:36;;;;;;;8.80;5.65;;;;;;;12.20;93.61;100135.44;5115377;28;20506;-87
2021/10/08 10:08:04;;;;;;;13.30;6.28;;;;;;;12.21;92.89;100112.63;5116723;28;20051;-87
2021/10/08 10:10:32;;;;;;;8.68;5.85;;;;;;;12.22;91.85;100116.19;5116136;27;20044;-87
2021/10/08 10:13:04;;;;;;;9.93;5.43;;;;;;;12.04;93.47;100130.88;5116642;28;20055;-87
2021/10/08 10:15:35;;;;;;;10.40;5.97;;;;;;;12.04;93.59;100119.97;5115889;28;20052;-86
2021/10/08 10:18:04;;;;;;;8.57;5.30;;;;;;;12.05;93.46;100109.91;5101472;28;20048;-86
2021/10/08 10:20:37;;;;;;;7.93;5.82;;;;;;;12.38;92.20;100102.53;5108907;28;20498;-86
2021/10/08 10:23:06;;;;;;;9.65;5.32;;;;;;;12.45;91.90;100096.38;5099337;28;20131;-86
2021/10/08 10:25:34;;;;;;;10.15;4.82;;;;;;;12.75;91.20;100113.84;5098972;28;20388;-84
2021/10/08 10:28:02;;;;;;;14.35;5.57;;;;;;;12.90;90.96;100109.34;5116052;28;20048;-84
2021/10/08 10:30:29;;;;;;;7.10;4.78;;;;;;;12.88;89.44;100092.28;5116122;28;20059;-84
2021/10/08 10:32:58;;;;;;;9.10;5.10;;;;;;;13.07;88.76;100109.28;5115998;28;20047;-84
2021/10/08 10:35:53;;;;;;;9.38;4.70;;;;;;;13.08;88.80;100097.31;5115350;28;20134;-84
2021/10/08 10:38:25;;;;;;;9.32;4.55;;;;;;;13.14;88.69;100095.75;5112268;28;20067;-84
2021/10/08 10:41:26;;;;;;;9.63;5.22;;;;;;;13.10;87.79;100106.19;5115970;28;20097;-84
2021/10/08 10:44:30;;;;;;;7.25;5.38;;;;;;;13.04;87.63;100088.66;5116589;28;20479;-84
2021/10/08 10:47:14;;;;;;;9.43;4.93;;;;;;;13.16;88.41;100096.41;5065052;28;20453;-84
2021/10/08 10:49:50;;;;;;;9.43;4.45;;;;;;;13.23;87.72;100095.56;5071805;28;20415;-84
2021/10/08 10:52:46;;;;;;;9.85;5.32;;;;;;;13.19;88.10;100087.91;5093752;28;20399;-85
2021/10/08 10:55:13;;;;;;;9.35;5.15;;;;;;;13.10;88.06;100085.19;5115564;28;20415;-86
2021/10/08 10:58:01;;;;;;;7.22;4.63;;;;;;;13.09;88.88;100099.88;5115869;28;20052;-85
2021/10/08 11:00:51;;;;;;;11.07;5.65;;;;;;;13.07;88.78;100084.72;5115425;28;20048;-86
2021/10/08 11:03:31;;;;;;;12.27;6.93;;;;;;;13.25;89.17;100092.63;5115294;27;20491;-85
2021/10/08 11:06:19;;;;;;;10.15;5.38;;;;;;;13.28;86.90;100086.81;5115459;28;20108;-87
2021/10/08 11:09:26;;;;;;;11.50;5.22;;;;;;;13.49;88.74;100094.41;5106643;28;20044;-84
2021/10/08 11:12:33;;;;;;;11.15;5.47;;;;;;;13.56;85.66;100080.84;5115593;28;20051;-85
2021/10/08 11:15:34;;;;;;;10.98;6.00;;;;;;;13.81;85.88;100093.28;5096695;28;20051;-85
2021/10/08 11:18:03;;;;;;;9.57;5.03;;;;;;;13.94;85.41;100100.00;5114874;28;20450;-85
2021/10/08 11:20:50;;;;;;;10.57;5.38;;;;;;;13.87;84.89;100085.41;5114899;28;20657;-85
2021/10/08 11:23:29;;;;;;;9.35;5.68;;;;;;;13.68;85.03;100062.16;5103846;28;20097;-83
2021/10/08 11:25:58;;;;;;;8.77;4.70;;;;;;;13.83;84.79;100070.41;5111646;28;20048;-85
2021/10/08 11:28:36;;;;;;;9.13;5.33;;;;;;;14.09;86.15;100076.31;5114521;28;20040;-84
2021/10/08 11:31:05;;;;;;;10.23;5.47;;;;;;;14.06;83.21;100062.16;5115018;28;20056;-84
2021/10/08 11:33:38;;;;;;;13.73;5.88;;;;;;;14.18;82.96;100071.59;5115007;28;20048;-84